Time;durP1;ratioP1;P1;durP2;ratioP2;P2;SDS_P1;SDS_P2;PMS_P1;PMS_P2;Temp;Humidity;BMP_temperature;BMP_pressure;BME280_temperature;BME280_humidity;BME280_pressure;Samples;Min_cycle;Max_cycle;Signal;HPM_P1;HPM_P2
2021/01/11 00:00:21;;;;;;;;;;;;;;;;;;5052005;28;2279;-71
2021/01/11 00:02:47;;;;;;;;;;;;;;;;;;5066297;28;2167;-72
2021/01/11 00:05:13;;;;;;;;;;;;;;;;;;5053659;28;1326;-70
2021/01/11 00:07:39;;;;;;;;;;;;;;;;;;5055225;28;1909;-72
2021/01/11 00:10:04;;;;;;;;;;;;;;;;;;5054525;28;1966;-73
2021/01/11 00:12:34;;;;;;;;;;;;;;;;;;5056076;28;1820;-73
2021/01/11 00:14:59;;;;;;;;;;;;;;;;;;5053135;28;1849;-69
2021/01/11 00:17:25;;;;;;;;;;;;;;;;;;5065558;28;1948;-69
2021/01/11 00:19:50;;;;;;;;;;;;;;;;;;5058310;28;1961;-69
2021/01/11 00:22:15;;;;;;;;;;;;;;;;;;5053902;28;1070;-70
2021/01/11 00:24:41;;;;;;;;;;;;;;;;;;5052622;28;2006;-71
2021/01/11 00:27:06;;;;;;;;;;;;;;;;;;5054002;28;930;-71
2021/01/11 00:29:31;;;;;;;;;;;;;;;;;;5055996;28;825;-71
2021/01/11 00:31:57;;;;;;;;;;;;;;;;;;5059858;28;1854;-68
2021/01/11 00:34:23;;;;;;;;;;;;;;;;;;5076186;28;1416;-73
2021/01/11 00:36:50;;;;;;;;;;;;;;;;;;5065881;28;1824;-71
2021/01/11 00:39:15;;;;;;;;;;;;;;;;;;5057555;28;1894;-69
2021/01/11 00:41:40;;;;;;;;;;;;;;;;;;5057990;28;1960;-70
2021/01/11 00:44:06;;;;;;;;;;;;;;;;;;5072634;28;2007;-69
2021/01/11 00:46:31;;;;;;;;;;;;;;;;;;5056239;28;1866;-73
2021/01/11 00:48:57;;;;;;;;;;;;;;;;;;5039581;28;2175;-72
2021/01/11 00:51:26;;;;;;;;;;;;;;;;;;5056889;28;1871;-71
2021/01/11 00:53:52;;;;;;;;;;;;;;;;;;5058096;28;1739;-68
2021/01/11 00:56:41;;;;;;;;;;;;;;;;;;5055207;28;2003;-68
2021/01/11 00:59:06;;;;;;;;;;;;;;;;;;5058761;28;1961;-70
2021/01/11 01:01:31;;;;;;;;;;;;;;;;;;5057664;28;2213;-76
2021/01/11 01:03:56;;;;;;;;;;;;;;;;;;5056410;28;1307;-72
2021/01/11 01:06:22;;;;;;;;;;;;;;;;;;5063835;28;1864;-73
2021/01/11 01:08:47;;;;;;;;;;;;;;;;;;5056962;28;996;-77
2021/01/11 01:11:12;;;;;;;;;;;;;;;;;;5057339;28;1660;-74
2021/01/11 01:13:38;;;;;;;;;;;;;;;;;;5075487;28;1710;-72
2021/01/11 01:16:04;;;;;;;;;;;;;;;;;;5066965;28;2045;-73
2021/01/11 01:18:29;;;;;;;;;;;;;;;;;;5065720;28;1932;-70
2021/01/11 01:20:54;;;;;;;;;;;;;;;;;;5055793;28;2062;-78
2021/01/11 01:23:19;;;;;;;;;;;;;;;;;;5059566;28;1975;-72
2021/01/11 01:25:45;;;;;;;;;;;;;;;;;;5062853;28;1877;-76
2021/01/11 01:28:10;;;;;;;;;;;;;;;;;;5072482;28;2171;-74
2021/01/11 01:30:35;;;;;;;;;;;;;;;;;;5055448;28;1276;-75
2021/01/11 01:33:01;;;;;;;;;;;;;;;;;;5055305;28;1815;-76
2021/01/11 01:35:26;;;;;;;;;;;;;;;;;;5056604;28;1322;-74
2021/01/11 01:37:51;;;;;;;;;;;;;;;;;;5056235;28;1898;-73
2021/01/11 01:40:16;;;;;;;;;;;;;;;;;;5058313;28;2107;-76
2021/01/11 01:42:42;;;;;;;;;;;;;;;;;;5073876;28;2090;-71
2021/01/11 01:45:07;;;;;;;;;;;;;;;;;;5069442;28;1867;-77
2021/01/11 01:47:33;;;;;;;;;;;;;;;;;;5070375;28;2144;-75
2021/01/11 01:49:59;;;;;;;;;;;;;;;;;;5062566;28;1941;-76
2021/01/11 01:52:25;;;;;;;;;;;;;;;;;;5056377;28;880;-77
2021/01/11 01:54:50;;;;;;;;;;;;;;;;;;5056888;28;2072;-72
2021/01/11 01:57:15;;;;;;;;;;;;;;;;;;5066290;28;2142;-73
2021/01/11 01:59:47;;;;;;;;;;;;;;;;;;5072769;28;1992;-73
2021/01/11 02:02:14;;;;;;;;;;;;;;;;;;5074721;28;1360;-72
2021/01/11 02:04:40;;;;;;;;;;;;;;;;;;5072668;28;1655;-74
2021/01/11 02:07:09;;;;;;;;;;;;;;;;;;5055927;28;1066;-72
2021/01/11 02:09:51;;;;;;;;;;;;;;;;;;5054663;28;1240;-75
2021/01/11 02:12:21;;;;;;;;;;;;;;;;;;5055924;28;861;-71
2021/01/11 02:15:05;;;;;;;;;;;;;;;;;;5056739;28;1779;-70
2021/01/11 02:17:37;;;;;;;;;;;;;;;;;;5055016;28;1706;-76
2021/01/11 02:20:14;;;;;;;;;;;;;;;;;;5054356;28;1973;-75
2021/01/11 02:22:50;;;;;;;;;;;;;;;;;;5055779;28;817;-74
2021/01/11 02:25:22;;;;;;;;;;;;;;;;;;5054553;28;2045;-72
2021/01/11 02:27:54;;;;;;;;;;;;;;;;;;5055649;28;1952;-75
2021/01/11 02:30:25;;;;;;;;;;;;;;;;;;5054017;28;1361;-73
2021/01/11 02:32:53;;;;;;;;;;;;;;;;;;5055848;28;2069;-75
2021/01/11 02:35:18;;;;;;;;;;;;;;;;;;5068605;28;2127;-72
2021/01/11 02:37:44;;;;;;;;;;;;;;;;;;5055179;28;992;-73
2021/01/11 02:40:10;;;;;;;;;;;;;;;;;;5054069;28;1959;-75
2021/01/11 02:42:36;;;;;;;;;;;;;;;;;;5054324;28;1015;-74
2021/01/11 02:45:02;;;;;;;;;;;;;;;;;;5056785;28;2108;-74
2021/01/11 02:47:36;;;;;;;;;;;;;;;;;;5055264;28;810;-75
2021/01/11 02:50:02;;;;;;;;;;;;;;;;;;5054961;28;921;-72
2021/01/11 02:52:30;;;;;;;;;;;;;;;;;;5053974;28;829;-71
2021/01/11 02:54:59;;;;;;;;;;;;;;;;;;5054557;28;2068;-73
2021/01/11 02:57:43;;;;;;;;;;;;;;;;;;5053835;28;1270;-76
2021/01/11 03:00:10;;;;;;;;;;;;;;;;;;5055113;28;2095;-75
2021/01/11 03:02:42;;;;;;;;;;;;;;;;;;5055132;28;884;-74
2021/01/11 03:05:08;;;;;;;;;;;;;;;;;;5053975;28;1975;-77
2021/01/11 03:07:33;;;;;;;;;;;;;;;;;;5058107;28;1157;-70
2021/01/11 03:09:58;;;;;;;;;;;;;;;;;;5073470;28;1387;-72
2021/01/11 03:12:23;;;;;;;;;;;;;;;;;;5073715;28;841;-70
2021/01/11 03:14:49;;;;;;;;;;;;;;;;;;5062827;28;2185;-69
2021/01/11 03:17:14;;;;;;;;;;;;;;;;;;5074694;28;948;-74
2021/01/11 03:19:39;;;;;;;;;;;;;;;;;;5074417;28;1894;-74
2021/01/11 03:22:05;;;;;;;;;;;;;;;;;;5073599;28;1064;-72
2021/01/11 03:24:30;;;;;;;;;;;;;;;;;;5060633;28;1912;-72
2021/01/11 03:26:59;;;;;;;;;;;;;;;;;;5053703;28;1130;-74
2021/01/11 03:29:25;;;;;;;;;;;;;;;;;;5053514;28;1314;-71
2021/01/11 03:31:50;;;;;;;;;;;;;;;;;;5055847;28;1805;-73
2021/01/11 03:34:15;;;;;;;;;;;;;;;;;;5053190;28;2014;-73
2021/01/11 03:36:41;;;;;;;;;;;;;;;;;;5055886;28;1819;-74
2021/01/11 03:39:07;;;;;;;;;;;;;;;;;;5057518;28;1922;-72
2021/01/11 03:41:40;;;;;;;;;;;;;;;;;;5054286;28;1051;-74
2021/01/11 03:44:05;;;;;;;;;;;;;;;;;;5064978;28;2074;-75
2021/01/11 03:46:31;;;;;;;;;;;;;;;;;;5057835;28;1788;-73
2021/01/11 03:48:56;;;;;;;;;;;;;;;;;;5053607;28;2104;-74
2021/01/11 03:51:22;;;;;;;;;;;;;;;;;;5068065;28;1749;-76
2021/01/11 03:53:47;;;;;;;;;;;;;;;;;;5054278;28;904;-72
2021/01/11 03:56:12;;;;;;;;;;;;;;;;;;5054248;28;1389;-76
2021/01/11 03:58:37;;;;;;;;;;;;;;;;;;5055685;28;1902;-73
2021/01/11 04:01:03;;;;;;;;;;;;;;;;;;5052751;28;1585;-71
2021/01/11 04:03:28;;;;;;;;;;;;;;;;;;5055995;28;936;-73
2021/01/11 04:05:54;;;;;;;;;;;;;;;;;;5056813;28;2243;-72
2021/01/11 04:08:20;;;;;;;;;;;;;;;;;;5066419;28;1630;-71
2021/01/11 04:10:45;;;;;;;;;;;;;;;;;;5060499;28;1758;-73
2021/01/11 04:13:11;;;;;;;;;;;;;;;;;;5058222;28;1105;-72
2021/01/11 04:15:36;;;;;;;;;;;;;;;;;;5057921;28;1334;-73
2021/01/11 04:18:01;;;;;;;;;;;;;;;;;;5057882;28;904;-71
2021/01/11 04:20:27;;;;;;;;;;;;;;;;;;5057822;28;1898;-72
2021/01/11 04:22:52;;;;;;;;;;;;;;;;;;5058011;28;1063;-74
2021/01/11 04:25:17;;;;;;;;;;;;;;;;;;5067083;28;1994;-73
2021/01/11 04:27:43;;;;;;;;;;;;;;;;;;5066259;28;1879;-70
2021/01/11 04:30:09;;;;;;;;;;;;;;;;;;5067061;28;2091;-74
2021/01/11 04:32:39;;;;;;;;;;;;;;;;;;5067950;28;1657;-75
2021/01/11 04:35:10;;;;;;;;;;;;;;;;;;5077647;28;1416;-73
2021/01/11 04:37:37;;;;;;;;;;;;;;;;;;5071984;28;1852;-73
2021/01/11 04:40:03;;;;;;;;;;;;;;;;;;5056007;28;1968;-76
2021/01/11 04:42:40;;;;;;;;;;;;;;;;;;5064021;28;1862;-74
2021/01/11 04:45:06;;;;;;;;;;;;;;;;;;5057586;28;1325;-71
2021/01/11 04:47:31;;;;;;;;;;;;;;;;;;5057302;28;2364;-71
2021/01/11 04:49:56;;;;;;;;;;;;;;;;;;5056571;28;1980;-74
2021/01/11 04:52:23;;;;;;;;;;;;;;;;;;5057450;28;983;-72
2021/01/11 04:54:51;;;;;;;;;;;;;;;;;;5055839;28;1444;-72
2021/01/11 04:57:21;;;;;;;;;;;;;;;;;;5058550;28;2010;-72
2021/01/11 04:59:49;;;;;;;;;;;;;;;;;;5057446;28;1895;-71
2021/01/11 05:02:21;;;;;;;;;;;;;;;;;;5056932;28;2077;-74
2021/01/11 05:04:47;;;;;;;;;;;;;;;;;;5072639;28;2393;-71
2021/01/11 05:07:15;;;;;;;;;;;;;;;;;;5075762;28;1083;-73
2021/01/11 05:09:43;;;;;;;;;;;;;;;;;;5057140;28;1043;-73
2021/01/11 05:12:08;;;;;;;;;;;;;;;;;;5066565;28;2058;-71
2021/01/11 05:14:33;;;;;;;;;;;;;;;;;;5068047;28;1967;-75
2021/01/11 05:17:02;;;;;;;;;;;;;;;;;;5056771;28;973;-75
2021/01/11 05:19:27;;;;;;;;;;;;;;;;;;5056979;28;1893;-72
2021/01/11 05:21:52;;;;;;;;;;;;;;;;;;5056859;28;1850;-74
2021/01/11 05:24:38;;;;;;;;;;;;;;;;;;5056993;28;902;-75
2021/01/11 05:27:07;;;;;;;;;;;;;;;;;;5056202;28;1119;-74
2021/01/11 05:29:34;;;;;;;;;;;;;;;;;;5055426;28;1773;-74
2021/01/11 05:32:00;;;;;;;;;;;;;;;;;;5056088;28;1754;-70
2021/01/11 05:34:44;;;;;;;;;;;;;;;;;;5074295;28;1887;-73
2021/01/11 05:37:09;;;;;;;;;;;;;;;;;;5075633;28;983;-71
2021/01/11 05:39:34;;;;;;;;;;;;;;;;;;5054870;28;1894;-74
2021/01/11 05:41:59;;;;;;;;;;;;;;;;;;5055964;28;1857;-71
2021/01/11 05:44:25;;;;;;;;;;;;;;;;;;5055884;28;2048;-72
2021/01/11 05:46:50;;;;;;;;;;;;;;;;;;5055190;28;1655;-73
2021/01/11 05:49:16;;;;;;;;;;;;;;;;;;5070843;28;1732;-71
2021/01/11 05:51:41;;;;;;;;;;;;;;;;;;5064068;28;2007;-76
2021/01/11 05:54:23;;;;;;;;;;;;;;;;;;5067449;28;2346;-70
2021/01/11 05:56:55;;;;;;;;;;;;;;;;;;5076236;28;876;-72
2021/01/11 05:59:20;;;;;;;;;;;;;;;;;;5076120;28;1894;-74
2021/01/11 06:01:46;;;;;;;;;;;;;;;;;;5073164;28;1795;-71
2021/01/11 06:04:11;;;;;;;;;;;;;;;;;;5063681;28;2147;-71
2021/01/11 06:06:37;;;;;;;;;;;;;;;;;;5054609;28;1393;-72
2021/01/11 06:09:02;;;;;;;;;;;;;;;;;;5055949;28;1966;-72
2021/01/11 06:11:27;;;;;;;;;;;;;;;;;;5055280;28;2051;-74
2021/01/11 06:13:53;;;;;;;;;;;;;;;;;;5054347;28;866;-69
2021/01/11 06:16:19;;;;;;;;;;;;;;;;;;5064458;28;1896;-75
2021/01/11 06:18:49;;;;;;;;;;;;;;;;;;5075644;28;1961;-71
2021/01/11 06:21:15;;;;;;;;;;;;;;;;;;5064424;28;2093;-69
2021/01/11 06:23:40;;;;;;;;;;;;;;;;;;5054724;28;1060;-70
2021/01/11 06:26:24;;;;;;;;;;;;;;;;;;5055084;28;1310;-74
2021/01/11 06:28:49;;;;;;;;;;;;;;;;;;5055676;28;900;-73
2021/01/11 06:31:15;;;;;;;;;;;;;;;;;;5055311;28;1997;-74
2021/01/11 06:33:40;;;;;;;;;;;;;;;;;;5055165;28;1978;-75
2021/01/11 06:36:32;;;;;;;;;;;;;;;;;;5072275;28;1754;-72
2021/01/11 06:39:08;;;;;;;;;;;;;;;;;;5058973;28;1894;-71
2021/01/11 06:41:33;;;;;;;;;;;;;;;;;;5054731;28;1940;-71
2021/01/11 06:44:03;;;;;;;;;;;;;;;;;;5054067;28;1194;-71
2021/01/11 06:46:28;;;;;;;;;;;;;;;;;;5055054;28;1310;-70
2021/01/11 06:48:56;;;;;;;;;;;;;;;;;;5055691;28;1790;-72
2021/01/11 06:51:28;;;;;;;;;;;;;;;;;;5062529;28;1909;-71
2021/01/11 06:54:05;;;;;;;;;;;;;;;;;;5054894;28;2147;-73
2021/01/11 06:56:32;;;;;;;;;;;;;;;;;;5053605;28;1463;-74
2021/01/11 06:59:04;;;;;;;;;;;;;;;;;;5055063;28;1969;-73
2021/01/11 07:01:31;;;;;;;;;;;;;;;;;;5056813;28;1966;-70
2021/01/11 07:03:56;;;;;;;;;;;;;;;;;;5055269;28;2003;-74
2021/01/11 07:06:40;;;;;;;;;;;;;;;;;;5054764;28;1294;-72
2021/01/11 07:09:10;;;;;;;;;;;;;;;;;;5053667;28;2168;-70
2021/01/11 07:11:36;;;;;;;;;;;;;;;;;;5065547;28;1945;-72
2021/01/11 07:14:02;;;;;;;;;;;;;;;;;;5058432;28;2048;-72
2021/01/11 07:16:44;;;;;;;;;;;;;;;;;;5054346;28;1987;-73
2021/01/11 07:19:10;;;;;;;;;;;;;;;;;;5053852;28;1906;-74
2021/01/11 07:21:35;;;;;;;;;;;;;;;;;;5054231;28;905;-70
2021/01/11 07:24:03;;;;;;;;;;;;;;;;;;5073841;28;1747;-74
2021/01/11 07:26:28;;;;;;;;;;;;;;;;;;5061345;28;1893;-70
2021/01/11 07:29:10;;;;;;;;;;;;;;;;;;5056444;28;1804;-70
2021/01/11 07:31:36;;;;;;;;;;;;;;;;;;5056605;28;2300;-74
2021/01/11 07:34:01;;;;;;;;;;;;;;;;;;5064850;28;1648;-69
2021/01/11 07:36:27;;;;;;;;;;;;;;;;;;5052639;28;2036;-73
2021/01/11 07:39:06;;;;;;;;;;;;;;;;;;5052726;28;1946;-71
2021/01/11 07:41:31;;;;;;;;;;;;;;;;;;5052891;28;1631;-73
2021/01/11 07:44:09;;;;;;;;;;;;;;;;;;5059627;28;1525;-75
2021/01/11 07:46:34;;;;;;;;;;;;;;;;;;5062660;28;2018;-70
2021/01/11 07:49:09;;;;;;;;;;;;;;;;;;5053157;28;1692;-72
2021/01/11 07:51:35;;;;;;;;;;;;;;;;;;5056100;28;1598;-74
2021/01/11 07:54:05;;;;;;;;;;;;;;;;;;5061272;28;2082;-71
2021/01/11 07:56:30;;;;;;;;;;;;;;;;;;5063809;28;1687;-73
2021/01/11 07:58:55;;;;;;;;;;;;;;;;;;5066692;28;2278;-72
2021/01/11 08:01:22;;;;;;;;;;;;;;;;;;5072977;28;2305;-72
2021/01/11 08:03:48;;;;;;;;;;;;;;;;;;5052260;28;1828;-70
2021/01/11 08:06:14;;;;;;;;;;;;;;;;;;5058680;28;1787;-75
2021/01/11 08:08:41;;;;;;;;;;;;;;;;;;5069112;28;1637;-70
2021/01/11 08:11:06;;;;;;;;;;;;;;;;;;5059489;28;1748;-74
2021/01/11 08:13:31;;;;;;;;;;;;;;;;;;5058954;28;1862;-75
2021/01/11 08:16:09;;;;;;;;;;;;;;;;;;5057630;28;1763;-74
2021/01/11 08:18:35;;;;;;;;;;;;;;;;;;5059932;28;1973;-71
2021/01/11 08:21:10;;;;;;;;;;;;;;;;;;5061978;28;1834;-71
2021/01/11 08:23:35;;;;;;;;;;;;;;;;;;5058985;28;1910;-70
2021/01/11 08:26:03;;;;;;;;;;;;;;;;;;5069052;28;2073;-72
2021/01/11 08:28:29;;;;;;;;;;;;;;;;;;5059476;28;1881;-74
2021/01/11 08:30:58;;;;;;;;;;;;;;;;;;5055107;28;1843;-72
2021/01/11 08:33:23;;;;;;;;;;;;;;;;;;5053991;28;837;-71
2021/01/11 08:35:48;;;;;;;;;;;;;;;;;;5056590;28;1987;-72
2021/01/11 08:38:14;;;;;;;;;;;;;;;;;;5053975;28;902;-72
2021/01/11 08:40:41;;;;;;;;;;;;;;;;;;5052346;28;1971;-74
2021/01/11 08:43:13;;;;;;;;;;;;;;;;;;5053838;28;820;-73
2021/01/11 08:45:39;;;;;;;;;;;;;;;;;;5053536;28;1298;-74
2021/01/11 08:48:06;;;;;;;;;;;;;;;;;;5053734;28;951;-69
2021/01/11 08:50:34;;;;;;;;;;;;;;;;;;5056767;28;866;-78
2021/01/11 08:53:16;;;;;;;;;;;;;;;;;;5057447;28;864;-73
2021/01/11 08:55:53;;;;;;;;;;;;;;;;;;5057450;28;1401;-70
2021/01/11 08:58:19;;;;;;;;;;;;;;;;;;5057505;28;940;-72
2021/01/11 09:00:44;;;;;;;;;;;;;;;;;;5057068;28;1951;-70
2021/01/11 09:03:09;;;;;;;;;;;;;;;;;;5057317;28;881;-71
2021/01/11 09:05:36;;;;;;;;;;;;;;;;;;5056393;28;1504;-72
2021/01/11 09:08:13;;;;;;;;;;;;;;;;;;5057291;28;1275;-74
2021/01/11 09:10:42;;;;;;;;;;;;;;;;;;5055481;28;1205;-72
2021/01/11 09:13:17;;;;;;;;;;;;;;;;;;5057240;28;881;-72
2021/01/11 09:15:43;;;;;;;;;;;;;;;;;;5056941;28;1286;-69
2021/01/11 09:18:09;;;;;;;;;;;;;;;;;;5056067;28;1367;-72
2021/01/11 09:20:36;;;;;;;;;;;;;;;;;;5055562;28;1890;-73
2021/01/11 09:23:01;;;;;;;;;;;;;;;;;;5055756;28;801;-73
2021/01/11 09:25:28;;;;;;;;;;;;;;;;;;5056726;28;1388;-75
2021/01/11 09:27:54;;;;;;;;;;;;;;;;;;5055592;28;901;-72
2021/01/11 09:30:19;;;;;;;;;;;;;;;;;;5056733;28;833;-75
2021/01/11 09:32:45;;;;;;;;;;;;;;;;;;5056658;28;852;-75
2021/01/11 09:35:11;;;;;;;;;;;;;;;;;;5056644;28;1309;-72
2021/01/11 09:37:36;;;;;;;;;;;;;;;;;;5055419;28;1195;-74
2021/01/11 09:40:02;;;;;;;;;;;;;;;;;;5056369;28;1890;-75
2021/01/11 09:42:27;;;;;;;;;;;;;;;;;;5055281;28;1603;-73
2021/01/11 09:44:53;;;;;;;;;;;;;;;;;;5056445;28;1290;-69
2021/01/11 09:47:18;;;;;;;;;;;;;;;;;;5054883;28;1511;-71
2021/01/11 09:49:43;;;;;;;;;;;;;;;;;;5054969;28;908;-73
2021/01/11 09:52:08;;;;;;;;;;;;;;;;;;5054959;28;1408;-75
2021/01/11 09:54:34;;;;;;;;;;;;;;;;;;5054952;28;1361;-72
2021/01/11 09:56:59;;;;;;;;;;;;;;;;;;5056192;28;999;-75
2021/01/11 09:59:25;;;;;;;;;;;;;;;;;;5054821;28;1963;-75
2021/01/11 10:01:50;;;;;;;;;;;;;;;;;;5053857;28;1738;-74
2021/01/11 10:04:16;;;;;;;;;;;;;;;;;;5054791;28;1243;-71
2021/01/11 10:06:45;;;;;;;;;;;;;;;;;;5056105;28;1428;-79
2021/01/11 10:09:10;;;;;;;;;;;;;;;;;;5056125;28;817;-79
2021/01/11 10:11:36;;;;;;;;;;;;;;;;;;5055865;28;908;-75
2021/01/11 10:14:02;;;;;;;;;;;;;;;;;;5055775;28;845;-73
2021/01/11 10:16:27;;;;;;;;;;;;;;;;;;5054444;28;1349;-75
2021/01/11 10:18:52;;;;;;;;;;;;;;;;;;5055820;28;1889;-80
2021/01/11 10:21:18;;;;;;;;;;;;;;;;;;5054522;28;1202;-76
2021/01/11 10:23:43;;;;;;;;;;;;;;;;;;5055895;28;809;-72
2021/01/11 10:26:13;;;;;;;;;;;;;;;;;;5055383;28;1314;-73
2021/01/11 10:28:38;;;;;;;;;;;;;;;;;;5055705;28;1031;-75
2021/01/11 10:31:04;;;;;;;;;;;;;;;;;;5055375;28;863;-74
2021/01/11 10:33:29;;;;;;;;;;;;;;;;;;5054020;28;1423;-76
2021/01/11 10:35:55;;;;;;;;;;;;;;;;;;5054195;28;2471;-76
2021/01/11 10:38:20;;;;;;;;;;;;;;;;;;5055546;28;813;-76
2021/01/11 10:40:45;;;;;;;;;;;;;;;;;;5055187;28;1897;-76
2021/01/11 10:43:11;;;;;;;;;;;;;;;;;;5055142;28;853;-78
2021/01/11 10:45:36;;;;;;;;;;;;;;;;;;5055627;28;1345;-78
2021/01/11 10:48:01;;;;;;;;;;;;;;;;;;5055255;28;904;-72
2021/01/11 10:50:28;;;;;;;;;;;;;;;;;;5055244;28;877;-73
2021/01/11 10:52:53;;;;;;;;;;;;;;;;;;5055227;28;833;-74
2021/01/11 10:55:18;;;;;;;;;;;;;;;;;;5054946;28;1412;-74
2021/01/11 10:57:44;;;;;;;;;;;;;;;;;;5054901;28;967;-76
2021/01/11 11:00:12;;;;;;;;;;;;;;;;;;5054753;28;1964;-75
2021/01/11 11:02:38;;;;;;;;;;;;;;;;;;5055134;28;877;-75
2021/01/11 11:05:04;;;;;;;;;;;;;;;;;;5055163;28;1428;-72
2021/01/11 11:07:32;;;;;;;;;;;;;;;;;;5054708;28;829;-77
2021/01/11 11:09:58;;;;;;;;;;;;;;;;;;5053724;28;1765;-73
2021/01/11 11:12:23;;;;;;;;;;;;;;;;;;5053959;28;928;-76
2021/01/11 11:14:48;;;;;;;;;;;;;;;;;;5054551;28;1286;-74
2021/01/11 11:17:14;;;;;;;;;;;;;;;;;;5054632;28;1399;-76
2021/01/11 11:19:40;;;;;;;;;;;;;;;;;;5054359;28;1897;-79
2021/01/11 11:22:05;;;;;;;;;;;;;;;;;;5053415;28;1198;-77
2021/01/11 11:24:30;;;;;;;;;;;;;;;;;;5053409;28;1361;-76
2021/01/11 11:27:00;;;;;;;;;;;;;;;;;;5054617;28;1012;-77
2021/01/11 11:29:25;;;;;;;;;;;;;;;;;;5053519;28;835;-79
2021/01/11 11:31:50;;;;;;;;;;;;;;;;;;5054459;28;881;-76
2021/01/11 11:34:15;;;;;;;;;;;;;;;;;;5054711;28;825;-77
2021/01/11 11:36:41;;;;;;;;;;;;;;;;;;5054403;28;1417;-79
2021/01/11 11:39:06;;;;;;;;;;;;;;;;;;5054563;28;1969;-76
2021/01/11 11:41:31;;;;;;;;;;;;;;;;;;5053149;28;941;-77
2021/01/11 11:43:56;;;;;;;;;;;;;;;;;;5053217;28;865;-78
2021/01/11 11:46:22;;;;;;;;;;;;;;;;;;5054376;28;1258;-74
2021/01/11 11:48:47;;;;;;;;;;;;;;;;;;5054255;28;880;-77
2021/01/11 11:51:13;;;;;;;;;;;;;;;;;;5054317;28;1004;-76
2021/01/11 11:53:38;;;;;;;;;;;;;;;;;;5053171;28;1643;-75
2021/01/11 11:56:04;;;;;;;;;;;;;;;;;;5054173;28;1386;-72
2021/01/11 11:58:29;;;;;;;;;;;;;;;;;;5054089;28;869;-80
2021/01/11 12:00:54;;;;;;;;;;;;;;;;;;5054000;28;1967;-75
2021/01/11 12:03:19;;;;;;;;;;;;;;;;;;5054262;28;860;-73
2021/01/11 12:05:45;;;;;;;;;;;;;;;;;;5054149;28;1286;-81
2021/01/11 12:08:10;;;;;;;;;;;;;;;;;;5052924;28;848;-78
2021/01/11 12:10:35;;;;;;;;;;;;;;;;;;5054127;28;898;-77
2021/01/11 12:13:00;;;;;;;;;;;;;;;;;;5054007;28;900;-78
2021/01/11 12:15:25;;;;;;;;;;;;;;;;;;5054111;28;1373;-74
2021/01/11 12:17:51;;;;;;;;;;;;;;;;;;5054237;28;1127;-74
2021/01/11 12:20:16;;;;;;;;;;;;;;;;;;5053912;28;1972;-73
2021/01/11 12:22:41;;;;;;;;;;;;;;;;;;5054138;28;821;-73
2021/01/11 12:25:07;;;;;;;;;;;;;;;;;;5055373;28;1425;-74
2021/01/11 12:27:32;;;;;;;;;;;;;;;;;;5056503;28;1844;-75
2021/01/11 12:29:58;;;;;;;;;;;;;;;;;;5057611;28;891;-74
2021/01/11 12:32:24;;;;;;;;;;;;;;;;;;5070887;28;2080;-74
2021/01/11 12:34:49;;;;;;;;;;;;;;;;;;5076413;28;1422;-75
2021/01/11 12:37:15;;;;;;;;;;;;;;;;;;5077622;28;913;-73
2021/01/11 12:39:41;;;;;;;;;;;;;;;;;;5076275;28;1969;-76
2021/01/11 12:42:07;;;;;;;;;;;;;;;;;;5076472;28;1901;-74
2021/01/11 12:44:32;;;;;;;;;;;;;;;;;;5077400;28;1420;-77
2021/01/11 12:46:58;;;;;;;;;;;;;;;;;;5076057;28;889;-78
2021/01/11 12:49:26;;;;;;;;;;;;;;;;;;5077571;28;856;-74
2021/01/11 12:51:51;;;;;;;;;;;;;;;;;;5076193;28;1456;-77
2021/01/11 12:54:18;;;;;;;;;;;;;;;;;;5077507;28;868;-77
2021/01/11 12:56:43;;;;;;;;;;;;;;;;;;5077359;28;1424;-78
2021/01/11 12:59:08;;;;;;;;;;;;;;;;;;5077256;28;1972;-78
2021/01/11 13:01:34;;;;;;;;;;;;;;;;;;5076943;28;881;-76
2021/01/11 13:04:00;;;;;;;;;;;;;;;;;;5077205;28;884;-76
2021/01/11 13:06:29;;;;;;;;;;;;;;;;;;5077048;28;1392;-77
2021/01/11 13:08:54;;;;;;;;;;;;;;;;;;5076949;28;887;-75
2021/01/11 13:11:20;;;;;;;;;;;;;;;;;;5076612;28;799;-77
2021/01/11 13:13:50;;;;;;;;;;;;;;;;;;5076816;28;900;-78
2021/01/11 13:16:28;;;;;;;;;;;;;;;;;;5076803;28;1430;-73
2021/01/11 13:18:55;;;;;;;;;;;;;;;;;;5076651;28;1961;-76
2021/01/11 13:21:21;;;;;;;;;;;;;;;;;;5076590;28;778;-76
2021/01/11 13:23:46;;;;;;;;;;;;;;;;;;5076768;28;833;-74
2021/01/11 13:26:12;;;;;;;;;;;;;;;;;;5075107;28;1493;-75
2021/01/11 13:28:37;;;;;;;;;;;;;;;;;;5076476;28;947;-75
2021/01/11 13:31:06;;;;;;;;;;;;;;;;;;5076365;28;900;-73
2021/01/11 13:33:31;;;;;;;;;;;;;;;;;;5068487;28;2113;-75
2021/01/11 13:35:57;;;;;;;;;;;;;;;;;;5055251;28;1306;-73
2021/01/11 13:38:24;;;;;;;;;;;;;;;;;;5056091;28;896;-74
2021/01/11 13:40:50;;;;;;;;;;;;;;;;;;5055999;28;1957;-73
2021/01/11 13:43:15;;;;;;;;;;;;;;;;;;5056394;28;830;-76
2021/01/11 13:45:40;;;;;;;;;;;;;;;;;;5056087;28;1325;-75
2021/01/11 13:48:06;;;;;;;;;;;;;;;;;;5055927;28;1066;-75
2021/01/11 13:50:31;;;;;;;;;;;;;;;;;;5055803;28;1181;-76
2021/01/11 13:52:56;;;;;;;;;;;;;;;;;;5056136;28;879;-74
2021/01/11 13:55:22;;;;;;;;;;;;;;;;;;5056070;28;1440;-73
2021/01/11 13:57:47;;;;;;;;;;;;;;;;;;5056021;28;885;-74
2021/01/11 14:00:12;;;;;;;;;;;;;;;;;;5055578;28;1952;-74
2021/01/11 14:02:38;;;;;;;;;;;;;;;;;;5054678;28;1203;-74
2021/01/11 14:05:03;;;;;;;;;;;;;;;;;;5054757;28;1417;-76
2021/01/11 14:07:32;;;;;;;;;;;;;;;;;;5055898;28;813;-73
2021/01/11 14:09:58;;;;;;;;;;;;;;;;;;5055527;28;889;-73
2021/01/11 14:12:23;;;;;;;;;;;;;;;;;;5055956;28;870;-75
2021/01/11 14:14:48;;;;;;;;;;;;;;;;;;5054635;28;1424;-75
2021/01/11 14:17:14;;;;;;;;;;;;;;;;;;5055752;28;942;-73
2021/01/11 14:19:39;;;;;;;;;;;;;;;;;;5054497;28;1901;-74
2021/01/11 14:22:04;;;;;;;;;;;;;;;;;;5055444;28;928;-74
2021/01/11 14:24:32;;;;;;;;;;;;;;;;;;5054259;28;1319;-74
2021/01/11 14:26:57;;;;;;;;;;;;;;;;;;5054096;28;1214;-73
2021/01/11 14:29:22;;;;;;;;;;;;;;;;;;5055792;28;777;-72
2021/01/11 14:31:52;;;;;;;;;;;;;;;;;;5055304;28;825;-75
2021/01/11 14:34:17;;;;;;;;;;;;;;;;;;5054041;28;1381;-74
2021/01/11 14:36:42;;;;;;;;;;;;;;;;;;5055330;28;1417;-74
2021/01/11 14:39:07;;;;;;;;;;;;;;;;;;5054380;28;1902;-75
2021/01/11 14:41:33;;;;;;;;;;;;;;;;;;5055256;28;856;-74
2021/01/11 14:43:58;;;;;;;;;;;;;;;;;;5055070;28;975;-76
2021/01/11 14:46:25;;;;;;;;;;;;;;;;;;5054964;28;1314;-76
2021/01/11 14:48:50;;;;;;;;;;;;;;;;;;5053714;28;1210;-74
2021/01/11 14:51:15;;;;;;;;;;;;;;;;;;5053528;28;1234;-73
2021/01/11 14:53:40;;;;;;;;;;;;;;;;;;5053664;28;908;-71
2021/01/11 14:56:09;;;;;;;;;;;;;;;;;;5053583;28;1353;-72
2021/01/11 14:58:35;;;;;;;;;;;;;;;;;;5053642;28;1453;-73
2021/01/11 15:01:01;;;;;;;;;;;;;;;;;;5053493;28;1967;-75
2021/01/11 15:03:26;;;;;;;;;;;;;;;;;;5053268;28;1269;-72
2021/01/11 15:05:52;;;;;;;;;;;;;;;;;;5053403;28;1476;-73
2021/01/11 15:08:17;;;;;;;;;;;;;;;;;;5059533;28;1344;-72
2021/01/11 15:10:42;;;;;;;;;;;;;;;;;;5074922;28;865;-76
2021/01/11 15:13:07;;;;;;;;;;;;;;;;;;5074711;28;825;-73
2021/01/11 15:15:32;;;;;;;;;;;;;;;;;;5073572;28;1357;-75
2021/01/11 15:17:58;;;;;;;;;;;;;;;;;;5074151;28;979;-75
2021/01/11 15:20:24;;;;;;;;;;;;;;;;;;5073080;28;1969;-74
2021/01/11 15:22:49;;;;;;;;;;;;;;;;;;5072940;28;1444;-73
2021/01/11 15:25:15;;;;;;;;;;;;;;;;;;5073214;28;1369;-75
2021/01/11 15:27:40;;;;;;;;;;;;;;;;;;5074512;28;900;-72
2021/01/11 15:30:06;;;;;;;;;;;;;;;;;;5072856;28;1376;-74
2021/01/11 15:32:31;;;;;;;;;;;;;;;;;;5074298;28;886;-75
2021/01/11 15:34:56;;;;;;;;;;;;;;;;;;5074071;28;1294;-75
2021/01/11 15:37:22;;;;;;;;;;;;;;;;;;5073113;28;1339;-75
2021/01/11 15:39:47;;;;;;;;;;;;;;;;;;5073940;28;1894;-73
2021/01/11 15:42:12;;;;;;;;;;;;;;;;;;5055920;28;1549;-73
2021/01/11 15:44:37;;;;;;;;;;;;;;;;;;5054154;28;1416;-73
2021/01/11 15:47:06;;;;;;;;;;;;;;;;;;5054007;28;859;-73
2021/01/11 15:49:31;;;;;;;;;;;;;;;;;;5052937;28;2424;-75
2021/01/11 15:51:57;;;;;;;;;;;;;;;;;;5053994;28;777;-76
2021/01/11 15:54:22;;;;;;;;;;;;;;;;;;5053792;28;1405;-75
2021/01/11 15:56:49;;;;;;;;;;;;;;;;;;5054294;28;873;-74
2021/01/11 15:59:17;;;;;;;;;;;;;;;;;;5055437;28;1898;-75
2021/01/11 16:01:42;;;;;;;;;;;;;;;;;;5056755;28;911;-73
2021/01/11 16:04:08;;;;;;;;;;;;;;;;;;5058262;28;893;-75
2021/01/11 16:06:40;;;;;;;;;;;;;;;;;;5057875;28;1341;-75
2021/01/11 16:09:05;;;;;;;;;;;;;;;;;;5056381;28;1895;-72
2021/01/11 16:11:31;;;;;;;;;;;;;;;;;;5058059;28;806;-72
2021/01/11 16:13:56;;;;;;;;;;;;;;;;;;5056600;28;829;-73
2021/01/11 16:16:21;;;;;;;;;;;;;;;;;;5057742;28;1389;-75
2021/01/11 16:18:46;;;;;;;;;;;;;;;;;;5058020;28;1898;-74
2021/01/11 16:21:18;;;;;;;;;;;;;;;;;;5057447;28;842;-73
2021/01/11 16:23:43;;;;;;;;;;;;;;;;;;5056814;28;1290;-75
2021/01/11 16:26:09;;;;;;;;;;;;;;;;;;5057713;28;1302;-74
2021/01/11 16:28:34;;;;;;;;;;;;;;;;;;5056521;28;1437;-73
2021/01/11 16:30:59;;;;;;;;;;;;;;;;;;5056376;28;1402;-73
2021/01/11 16:33:25;;;;;;;;;;;;;;;;;;5057900;28;908;-74
2021/01/11 16:35:50;;;;;;;;;;;;;;;;;;5057513;28;1302;-74
2021/01/11 16:38:15;;;;;;;;;;;;;;;;;;5057863;28;879;-74
2021/01/11 16:40:40;;;;;;;;;;;;;;;;;;5056303;28;1933;-72
2021/01/11 16:43:06;;;;;;;;;;;;;;;;;;5057760;28;955;-73
2021/01/11 16:45:31;;;;;;;;;;;;;;;;;;5057356;28;1294;-74
2021/01/11 16:47:56;;;;;;;;;;;;;;;;;;5057458;28;872;-73
2021/01/11 16:50:22;;;;;;;;;;;;;;;;;;5055980;28;1242;-74
2021/01/11 16:52:49;;;;;;;;;;;;;;;;;;5057457;28;821;-74
2021/01/11 16:55:14;;;;;;;;;;;;;;;;;;5057403;28;1310;-72
2021/01/11 16:57:39;;;;;;;;;;;;;;;;;;5055853;28;810;-73
2021/01/11 17:00:06;;;;;;;;;;;;;;;;;;5055692;28;1906;-73
2021/01/11 17:02:31;;;;;;;;;;;;;;;;;;5057204;28;981;-74
2021/01/11 17:04:56;;;;;;;;;;;;;;;;;;5055809;28;1554;-75